sensor_id;sensor_type;location;lat;lon;timestamp;temperature;humidity
47162;DHT22;32921;53.256;8.198;2022-09-09T00:00:19;13.80;99.90
47162;DHT22;32921;53.256;8.198;2022-09-09T00:02:54;13.90;99.90
47162;DHT22;32921;53.256;8.198;2022-09-09T00:05:44;13.80;99.90
47162;DHT22;32921;53.256;8.198;2022-09-09T00:08:19;13.90;99.90
47162;DHT22;32921;53.256;8.198;2022-09-09T00:10:54;13.80;99.90
47162;DHT22;32921;53.256;8.198;2022-09-09T00:13:49;13.60;99.90
47162;DHT22;32921;53.256;8.198;2022-09-09T00:16:19;13.60;99.90
47162;DHT22;32921;53.256;8.198;2022-09-09T00:21:42;13.60;99.90
47162;DHT22;32921;53.256;8.198;2022-09-09T00:24:23;13.50;99.90
47162;DHT22;32921;53.256;8.198;2022-09-09T00:26:53;13.50;99.90
47162;DHT22;32921;53.256;8.198;2022-09-09T00:29:35;13.30;99.90
47162;DHT22;32921;53.256;8.198;2022-09-09T00:32:17;13.40;99.90
47162;DHT22;32921;53.256;8.198;2022-09-09T00:35:16;13.30;99.90
47162;DHT22;32921;53.256;8.198;2022-09-09T00:37:44;13.30;99.90
47162;DHT22;32921;53.256;8.198;2022-09-09T00:40:27;13.30;99.90
47162;DHT22;32921;53.256;8.198;2022-09-09T00:48:33;13.50;99.90
47162;DHT22;32921;53.256;8.198;2022-09-09T00:51:09;13.60;99.90
47162;DHT22;32921;53.256;8.198;2022-09-09T00:56:25;13.90;99.90
47162;DHT22;32921;53.256;8.198;2022-09-09T01:01:21;13.90;99.90
47162;DHT22;32921;53.256;8.198;2022-09-09T01:03:53;13.90;99.90
47162;DHT22;32921;53.256;8.198;2022-09-09T01:06:28;13.90;99.90
47162;DHT22;32921;53.256;8.198;2022-09-09T01:14:41;13.90;99.90
47162;DHT22;32921;53.256;8.198;2022-09-09T01:17:20;14.00;99.90
47162;DHT22;32921;53.256;8.198;2022-09-09T01:20:02;13.90;99.90
47162;DHT22;32921;53.256;8.198;2022-09-09T01:23:02;13.90;99.90
47162;DHT22;32921;53.256;8.198;2022-09-09T01:28:31;13.80;99.90
47162;DHT22;32921;53.256;8.198;2022-09-09T01:31:00;13.60;99.90
47162;DHT22;32921;53.256;8.198;2022-09-09T01:33:27;13.60;99.90
47162;DHT22;32921;53.256;8.198;2022-09-09T01:36:05;13.60;99.90
47162;DHT22;32921;53.256;8.198;2022-09-09T01:38:33;13.60;99.90
47162;DHT22;32921;53.256;8.198;2022-09-09T01:40:59;13.50;99.90
47162;DHT22;32921;53.256;8.198;2022-09-09T01:43:26;13.60;99.90
47162;DHT22;32921;53.256;8.198;2022-09-09T01:45:56;13.60;99.90
47162;DHT22;32921;53.256;8.198;2022-09-09T01:48:23;13.50;99.90
47162;DHT22;32921;53.256;8.198;2022-09-09T01:50:49;13.50;99.90
47162;DHT22;32921;53.256;8.198;2022-09-09T01:53:17;13.60;99.90
47162;DHT22;32921;53.256;8.198;2022-09-09T01:58:29;13.70;99.90
47162;DHT22;32921;53.256;8.198;2022-09-09T02:03:28;13.80;99.90
47162;DHT22;32921;53.256;8.198;2022-09-09T02:08:50;13.80;99.90
47162;DHT22;32921;53.256;8.198;2022-09-09T02:11:19;13.90;99.90
47162;DHT22;32921;53.256;8.198;2022-09-09T02:13:47;14.00;99.90
47162;DHT22;32921;53.256;8.198;2022-09-09T02:16:22;14.00;99.90
47162;DHT22;32921;53.256;8.198;2022-09-09T02:18:56;14.00;99.90
47162;DHT22;32921;53.256;8.198;2022-09-09T02:21:23;14.10;99.90
47162;DHT22;32921;53.256;8.198;2022-09-09T02:23:50;14.00;99.90
47162;DHT22;32921;53.256;8.198;2022-09-09T02:26:19;14.10;99.90
47162;DHT22;32921;53.256;8.198;2022-09-09T02:28:49;14.10;99.90
47162;DHT22;32921;53.256;8.198;2022-09-09T02:31:18;14.10;99.90
47162;DHT22;32921;53.256;8.198;2022-09-09T02:33:47;14.00;99.90
47162;DHT22;32921;53.256;8.198;2022-09-09T02:36:16;14.00;99.90
47162;DHT22;32921;53.256;8.198;2022-09-09T02:38:46;13.90;99.90
47162;DHT22;32921;53.256;8.198;2022-09-09T02:41:20;13.90;99.90
47162;DHT22;32921;53.256;8.198;2022-09-09T02:43:48;13.80;99.90
47162;DHT22;32921;53.256;8.198;2022-09-09T02:46:36;13.80;99.90
47162;DHT22;32921;53.256;8.198;2022-09-09T02:49:09;13.70;99.90
47162;DHT22;32921;53.256;8.198;2022-09-09T02:52:00;13.70;99.90
47162;DHT22;32921;53.256;8.198;2022-09-09T02:56:53;13.70;99.90
47162;DHT22;32921;53.256;8.198;2022-09-09T02:59:20;13.80;99.90
47162;DHT22;32921;53.256;8.198;2022-09-09T03:01:46;13.80;99.90
47162;DHT22;32921;53.256;8.198;2022-09-09T03:04:12;13.80;99.90
47162;DHT22;32921;53.256;8.198;2022-09-09T03:06:38;13.80;99.90
47162;DHT22;32921;53.256;8.198;2022-09-09T03:09:03;13.80;99.90
47162;DHT22;32921;53.256;8.198;2022-09-09T03:11:29;13.80;99.90
47162;DHT22;32921;53.256;8.198;2022-09-09T03:13:55;13.80;99.90
47162;DHT22;32921;53.256;8.198;2022-09-09T03:16:22;13.90;99.90
47162;DHT22;32921;53.256;8.198;2022-09-09T03:18:48;13.90;99.90
47162;DHT22;32921;53.256;8.198;2022-09-09T03:21:14;13.90;99.90
47162;DHT22;32921;53.256;8.198;2022-09-09T03:23:40;13.90;99.90
47162;DHT22;32921;53.256;8.198;2022-09-09T03:26:06;13.90;99.90
47162;DHT22;32921;53.256;8.198;2022-09-09T03:28:31;13.90;99.90
47162;DHT22;32921;53.256;8.198;2022-09-09T03:31:01;14.00;99.90
47162;DHT22;32921;53.256;8.198;2022-09-09T03:33:27;14.10;99.90
47162;DHT22;32921;53.256;8.198;2022-09-09T03:35:53;14.10;99.90
47162;DHT22;32921;53.256;8.198;2022-09-09T03:38:18;14.10;99.90
47162;DHT22;32921;53.256;8.198;2022-09-09T03:40:49;14.10;99.90
47162;DHT22;32921;53.256;8.198;2022-09-09T03:43:15;14.10;99.90
47162;DHT22;32921;53.256;8.198;2022-09-09T03:45:45;14.20;99.90
47162;DHT22;32921;53.256;8.198;2022-09-09T03:48:13;14.20;99.90
47162;DHT22;32921;53.256;8.198;2022-09-09T03:50:38;14.10;99.90
47162;DHT22;32921;53.256;8.198;2022-09-09T03:53:04;14.20;99.90
47162;DHT22;32921;53.256;8.198;2022-09-09T03:55:31;14.10;99.90
47162;DHT22;32921;53.256;8.198;2022-09-09T03:57:57;14.10;99.90
47162;DHT22;32921;53.256;8.198;2022-09-09T04:00:23;14.10;99.90
47162;DHT22;32921;53.256;8.198;2022-09-09T04:02:49;14.00;99.90
47162;DHT22;32921;53.256;8.198;2022-09-09T04:05:15;13.90;99.90
47162;DHT22;32921;53.256;8.198;2022-09-09T04:07:40;13.90;99.90
47162;DHT22;32921;53.256;8.198;2022-09-09T04:10:07;13.80;99.90
47162;DHT22;32921;53.256;8.198;2022-09-09T04:12:33;13.80;99.90
47162;DHT22;32921;53.256;8.198;2022-09-09T04:15:00;13.70;99.90
47162;DHT22;32921;53.256;8.198;2022-09-09T04:17:27;13.70;99.90
47162;DHT22;32921;53.256;8.198;2022-09-09T04:19:53;13.70;99.90
47162;DHT22;32921;53.256;8.198;2022-09-09T04:22:18;13.70;99.90
47162;DHT22;32921;53.256;8.198;2022-09-09T04:24:44;13.70;99.90
47162;DHT22;32921;53.256;8.198;2022-09-09T04:27:09;13.70;99.90
47162;DHT22;32921;53.256;8.198;2022-09-09T04:29:35;13.70;99.90
47162;DHT22;32921;53.256;8.198;2022-09-09T04:32:01;13.60;99.90
47162;DHT22;32921;53.256;8.198;2022-09-09T04:34:26;13.60;99.90
47162;DHT22;32921;53.256;8.198;2022-09-09T04:36:52;13.60;99.90
47162;DHT22;32921;53.256;8.198;2022-09-09T04:39:17;13.60;99.90
47162;DHT22;32921;53.256;8.198;2022-09-09T04:41:43;13.60;99.90
47162;DHT22;32921;53.256;8.198;2022-09-09T04:44:08;13.70;99.90
47162;DHT22;32921;53.256;8.198;2022-09-09T04:46:35;13.60;99.90
47162;DHT22;32921;53.256;8.198;2022-09-09T04:49:00;13.50;99.90
47162;DHT22;32921;53.256;8.198;2022-09-09T04:51:26;13.50;99.90
47162;DHT22;32921;53.256;8.198;2022-09-09T04:53:52;13.40;99.90
47162;DHT22;32921;53.256;8.198;2022-09-09T04:56:19;13.30;99.90
47162;DHT22;32921;53.256;8.198;2022-09-09T04:58:45;13.30;99.90
47162;DHT22;32921;53.256;8.198;2022-09-09T05:01:13;13.30;99.90
47162;DHT22;32921;53.256;8.198;2022-09-09T05:03:39;13.30;99.90
47162;DHT22;32921;53.256;8.198;2022-09-09T05:06:16;13.30;99.90
47162;DHT22;32921;53.256;8.198;2022-09-09T05:08:42;13.20;99.90
47162;DHT22;32921;53.256;8.198;2022-09-09T05:11:26;13.30;99.90
47162;DHT22;32921;53.256;8.198;2022-09-09T05:13:53;13.30;99.90
47162;DHT22;32921;53.256;8.198;2022-09-09T05:16:20;13.30;99.90
47162;DHT22;32921;53.256;8.198;2022-09-09T05:18:46;13.20;99.90
47162;DHT22;32921;53.256;8.198;2022-09-09T05:21:13;13.30;99.90
47162;DHT22;32921;53.256;8.198;2022-09-09T05:23:39;13.30;99.90
47162;DHT22;32921;53.256;8.198;2022-09-09T05:26:06;13.30;99.90
47162;DHT22;32921;53.256;8.198;2022-09-09T05:28:34;13.30;99.90
47162;DHT22;32921;53.256;8.198;2022-09-09T05:31:09;13.40;99.90
47162;DHT22;32921;53.256;8.198;2022-09-09T05:33:36;13.50;99.90
47162;DHT22;32921;53.256;8.198;2022-09-09T05:36:06;13.60;99.90
47162;DHT22;32921;53.256;8.198;2022-09-09T05:38:33;13.70;99.90
47162;DHT22;32921;53.256;8.198;2022-09-09T05:41:00;13.70;99.90
47162;DHT22;32921;53.256;8.198;2022-09-09T05:43:26;13.80;99.90
47162;DHT22;32921;53.256;8.198;2022-09-09T05:46:23;13.90;99.90
47162;DHT22;32921;53.256;8.198;2022-09-09T05:48:50;14.00;99.90
47162;DHT22;32921;53.256;8.198;2022-09-09T05:51:19;14.20;99.90
47162;DHT22;32921;53.256;8.198;2022-09-09T05:53:47;14.30;99.90
47162;DHT22;32921;53.256;8.198;2022-09-09T05:56:16;14.50;99.90
47162;DHT22;32921;53.256;8.198;2022-09-09T05:58:43;14.70;99.90
47162;DHT22;32921;53.256;8.198;2022-09-09T06:01:30;14.80;99.90
47162;DHT22;32921;53.256;8.198;2022-09-09T06:03:56;15.00;99.90
47162;DHT22;32921;53.256;8.198;2022-09-09T06:06:24;15.20;99.90
47162;DHT22;32921;53.256;8.198;2022-09-09T06:08:52;15.10;99.90
47162;DHT22;32921;53.256;8.198;2022-09-09T06:11:26;15.10;99.90
47162;DHT22;32921;53.256;8.198;2022-09-09T06:13:52;15.10;99.90
47162;DHT22;32921;53.256;8.198;2022-09-09T06:16:22;15.20;99.90
47162;DHT22;32921;53.256;8.198;2022-09-09T06:18:51;15.10;99.90
47162;DHT22;32921;53.256;8.198;2022-09-09T06:21:20;15.10;99.90
47162;DHT22;32921;53.256;8.198;2022-09-09T06:23:46;15.10;99.90
47162;DHT22;32921;53.256;8.198;2022-09-09T06:26:15;15.20;99.90
47162;DHT22;32921;53.256;8.198;2022-09-09T06:28:43;15.30;99.90
47162;DHT22;32921;53.256;8.198;2022-09-09T06:31:11;15.40;99.90
47162;DHT22;32921;53.256;8.198;2022-09-09T06:33:39;15.40;99.90
47162;DHT22;32921;53.256;8.198;2022-09-09T06:36:07;15.40;99.90
47162;DHT22;32921;53.256;8.198;2022-09-09T06:38:35;15.40;99.90
47162;DHT22;32921;53.256;8.198;2022-09-09T06:41:01;15.50;99.90
47162;DHT22;32921;53.256;8.198;2022-09-09T06:43:27;15.50;99.90
47162;DHT22;32921;53.256;8.198;2022-09-09T06:46:01;15.40;99.90
47162;DHT22;32921;53.256;8.198;2022-09-09T06:48:28;15.50;99.90
47162;DHT22;32921;53.256;8.198;2022-09-09T06:51:06;15.60;99.90
47162;DHT22;32921;53.256;8.198;2022-09-09T06:53:33;15.50;99.90
47162;DHT22;32921;53.256;8.198;2022-09-09T06:56:24;15.60;99.90
47162;DHT22;32921;53.256;8.198;2022-09-09T06:58:50;15.60;99.90
47162;DHT22;32921;53.256;8.198;2022-09-09T07:01:18;15.60;99.90
47162;DHT22;32921;53.256;8.198;2022-09-09T07:03:49;15.50;99.90
47162;DHT22;32921;53.256;8.198;2022-09-09T07:06:33;15.60;99.90
47162;DHT22;32921;53.256;8.198;2022-09-09T07:09:03;15.70;99.90
47162;DHT22;32921;53.256;8.198;2022-09-09T07:11:31;15.80;99.90
47162;DHT22;32921;53.256;8.198;2022-09-09T07:13:58;16.10;99.90
47162;DHT22;32921;53.256;8.198;2022-09-09T07:16:25;16.40;99.90
47162;DHT22;32921;53.256;8.198;2022-09-09T07:18:53;16.50;99.90
47162;DHT22;32921;53.256;8.198;2022-09-09T07:21:23;16.80;99.90
47162;DHT22;32921;53.256;8.198;2022-09-09T07:23:49;17.10;99.90
47162;DHT22;32921;53.256;8.198;2022-09-09T07:26:17;17.30;99.90
47162;DHT22;32921;53.256;8.198;2022-09-09T07:28:44;17.50;99.90
47162;DHT22;32921;53.256;8.198;2022-09-09T07:31:21;17.50;99.90
47162;DHT22;32921;53.256;8.198;2022-09-09T07:33:48;17.30;99.90
47162;DHT22;32921;53.256;8.198;2022-09-09T07:36:19;17.50;99.90
47162;DHT22;32921;53.256;8.198;2022-09-09T07:39:12;17.60;99.90
47162;DHT22;32921;53.256;8.198;2022-09-09T07:41:43;17.90;99.90
47162;DHT22;32921;53.256;8.198;2022-09-09T07:44:12;18.50;99.90
47162;DHT22;32921;53.256;8.198;2022-09-09T07:46:38;18.90;99.90
47162;DHT22;32921;53.256;8.198;2022-09-09T07:49:08;19.20;99.90
47162;DHT22;32921;53.256;8.198;2022-09-09T07:51:39;19.50;99.90
47162;DHT22;32921;53.256;8.198;2022-09-09T07:54:08;19.90;99.90
47162;DHT22;32921;53.256;8.198;2022-09-09T07:56:34;20.40;99.90
47162;DHT22;32921;53.256;8.198;2022-09-09T08:02:23;20.60;99.90
47162;DHT22;32921;53.256;8.198;2022-09-09T08:04:49;20.20;99.90
47162;DHT22;32921;53.256;8.198;2022-09-09T08:07:15;19.70;99.90
47162;DHT22;32921;53.256;8.198;2022-09-09T08:09:41;19.50;99.90
47162;DHT22;32921;53.256;8.198;2022-09-09T08:12:07;19.30;99.90
47162;DHT22;32921;53.256;8.198;2022-09-09T08:14:33;19.00;99.90
47162;DHT22;32921;53.256;8.198;2022-09-09T08:16:59;19.00;99.90
47162;DHT22;32921;53.256;8.198;2022-09-09T08:19:25;18.80;99.90
47162;DHT22;32921;53.256;8.198;2022-09-09T08:21:50;19.00;99.90
47162;DHT22;32921;53.256;8.198;2022-09-09T08:24:17;19.20;99.90
47162;DHT22;32921;53.256;8.198;2022-09-09T08:26:47;19.40;99.90
47162;DHT22;32921;53.256;8.198;2022-09-09T08:29:14;19.60;99.90
47162;DHT22;32921;53.256;8.198;2022-09-09T08:34:08;20.80;99.90
47162;DHT22;32921;53.256;8.198;2022-09-09T08:36:47;21.00;99.90
47162;DHT22;32921;53.256;8.198;2022-09-09T08:39:15;21.10;99.90
47162;DHT22;32921;53.256;8.198;2022-09-09T08:44:45;21.50;99.90
47162;DHT22;32921;53.256;8.198;2022-09-09T08:57:44;20.80;99.90
47162;DHT22;32921;53.256;8.198;2022-09-09T09:00:11;21.30;99.90
47162;DHT22;32921;53.256;8.198;2022-09-09T09:02:53;21.60;99.90
47162;DHT22;32921;53.256;8.198;2022-09-09T09:05:25;21.50;99.90
47162;DHT22;32921;53.256;8.198;2022-09-09T09:13:34;23.10;99.90
47162;DHT22;32921;53.256;8.198;2022-09-09T09:16:30;23.20;99.90
47162;DHT22;32921;53.256;8.198;2022-09-09T09:18:58;22.70;99.90
47162;DHT22;32921;53.256;8.198;2022-09-09T09:21:29;22.30;99.90
47162;DHT22;32921;53.256;8.198;2022-09-09T09:24:00;21.90;99.90
47162;DHT22;32921;53.256;8.198;2022-09-09T09:26:33;22.20;99.90
47162;DHT22;32921;53.256;8.198;2022-09-09T09:28:59;22.70;99.90
47162;DHT22;32921;53.256;8.198;2022-09-09T09:31:26;23.50;99.90
47162;DHT22;32921;53.256;8.198;2022-09-09T09:33:53;23.50;99.90
47162;DHT22;32921;53.256;8.198;2022-09-09T09:36:33;23.50;99.90
47162;DHT22;32921;53.256;8.198;2022-09-09T09:39:01;23.80;99.90
47162;DHT22;32921;53.256;8.198;2022-09-09T09:41:36;23.60;99.50
47162;DHT22;32921;53.256;8.198;2022-09-09T09:44:04;22.20;99.90
47162;DHT22;32921;53.256;8.198;2022-09-09T09:46:31;21.40;99.90
47162;DHT22;32921;53.256;8.198;2022-09-09T09:48:58;21.00;99.90
47162;DHT22;32921;53.256;8.198;2022-09-09T09:51:24;20.80;99.90
47162;DHT22;32921;53.256;8.198;2022-09-09T09:53:50;21.00;99.90
47162;DHT22;32921;53.256;8.198;2022-09-09T09:56:26;20.70;99.90
47162;DHT22;32921;53.256;8.198;2022-09-09T09:58:54;20.40;99.90
47162;DHT22;32921;53.256;8.198;2022-09-09T10:01:26;20.90;99.90
47162;DHT22;32921;53.256;8.198;2022-09-09T10:06:33;22.20;99.90
47162;DHT22;32921;53.256;8.198;2022-09-09T10:08:59;21.80;99.90
47162;DHT22;32921;53.256;8.198;2022-09-09T10:19:36;22.30;99.90
47162;DHT22;32921;53.256;8.198;2022-09-09T10:28:00;24.60;99.60
47162;DHT22;32921;53.256;8.198;2022-09-09T10:30:46;25.10;96.50
47162;DHT22;32921;53.256;8.198;2022-09-09T10:33:49;24.70;96.80
47162;DHT22;32921;53.256;8.198;2022-09-09T10:36:24;23.70;98.70
47162;DHT22;32921;53.256;8.198;2022-09-09T10:44:25;23.40;99.00
47162;DHT22;32921;53.256;8.198;2022-09-09T10:52:44;25.90;92.60
47162;DHT22;32921;53.256;8.198;2022-09-09T10:55:32;26.30;90.80
47162;DHT22;32921;53.256;8.198;2022-09-09T10:58:00;26.20;90.60
47162;DHT22;32921;53.256;8.198;2022-09-09T11:03:03;25.70;91.30
47162;DHT22;32921;53.256;8.198;2022-09-09T11:05:48;24.80;93.10
47162;DHT22;32921;53.256;8.198;2022-09-09T11:08:26;24.20;93.50
47162;DHT22;32921;53.256;8.198;2022-09-09T11:11:32;25.10;93.10
47162;DHT22;32921;53.256;8.198;2022-09-09T11:18:57;24.50;94.00
47162;DHT22;32921;53.256;8.198;2022-09-09T11:21:36;25.80;92.50
47162;DHT22;32921;53.256;8.198;2022-09-09T11:24:06;27.10;88.40
47162;DHT22;32921;53.256;8.198;2022-09-09T11:26:44;26.70;86.00
47162;DHT22;32921;53.256;8.198;2022-09-09T11:35:07;27.20;84.60
47162;DHT22;32921;53.256;8.198;2022-09-09T11:37:51;28.20;83.00
47162;DHT22;32921;53.256;8.198;2022-09-09T11:40:26;27.80;78.10
47162;DHT22;32921;53.256;8.198;2022-09-09T11:43:05;26.60;81.80
47162;DHT22;32921;53.256;8.198;2022-09-09T11:45:35;25.30;84.30
47162;DHT22;32921;53.256;8.198;2022-09-09T11:48:02;25.00;89.30
47162;DHT22;32921;53.256;8.198;2022-09-09T11:50:37;25.10;88.00
47162;DHT22;32921;53.256;8.198;2022-09-09T11:53:14;24.50;90.70
47162;DHT22;32921;53.256;8.198;2022-09-09T11:55:41;23.90;91.60
47162;DHT22;32921;53.256;8.198;2022-09-09T12:00:38;23.10;96.20
47162;DHT22;32921;53.256;8.198;2022-09-09T12:03:06;22.30;99.90
47162;DHT22;32921;53.256;8.198;2022-09-09T12:05:52;21.60;99.90
47162;DHT22;32921;53.256;8.198;2022-09-09T12:08:27;20.90;99.90
47162;DHT22;32921;53.256;8.198;2022-09-09T12:11:02;20.50;99.90
47162;DHT22;32921;53.256;8.198;2022-09-09T12:13:30;20.30;99.90
47162;DHT22;32921;53.256;8.198;2022-09-09T12:15:59;20.10;99.90
47162;DHT22;32921;53.256;8.198;2022-09-09T12:18:32;19.80;99.90
47162;DHT22;32921;53.256;8.198;2022-09-09T12:24:00;19.90;99.90
47162;DHT22;32921;53.256;8.198;2022-09-09T12:26:36;20.10;99.90
47162;DHT22;32921;53.256;8.198;2022-09-09T12:34:46;20.90;99.90
47162;DHT22;32921;53.256;8.198;2022-09-09T12:38:01;21.00;99.90
47162;DHT22;32921;53.256;8.198;2022-09-09T12:40:30;21.00;99.90
47162;DHT22;32921;53.256;8.198;2022-09-09T12:42:58;20.80;99.90
47162;DHT22;32921;53.256;8.198;2022-09-09T12:45:29;20.40;99.90
47162;DHT22;32921;53.256;8.198;2022-09-09T12:48:01;20.10;99.90
47162;DHT22;32921;53.256;8.198;2022-09-09T12:50:35;20.20;99.90
47162;DHT22;32921;53.256;8.198;2022-09-09T12:55:51;20.60;99.90
47162;DHT22;32921;53.256;8.198;2022-09-09T12:58:18;22.10;99.90
47162;DHT22;32921;53.256;8.198;2022-09-09T13:00:52;22.20;99.90
47162;DHT22;32921;53.256;8.198;2022-09-09T13:03:20;22.30;99.90
47162;DHT22;32921;53.256;8.198;2022-09-09T13:05:46;22.20;99.90
47162;DHT22;32921;53.256;8.198;2022-09-09T13:08:13;22.50;99.90
47162;DHT22;32921;53.256;8.198;2022-09-09T13:10:46;22.80;99.90
47162;DHT22;32921;53.256;8.198;2022-09-09T13:13:17;22.80;99.90
47162;DHT22;32921;53.256;8.198;2022-09-09T13:15:54;21.80;99.90
47162;DHT22;32921;53.256;8.198;2022-09-09T13:18:27;21.30;99.90
47162;DHT22;32921;53.256;8.198;2022-09-09T13:20:53;20.70;99.90
47162;DHT22;32921;53.256;8.198;2022-09-09T13:23:20;20.70;99.90
47162;DHT22;32921;53.256;8.198;2022-09-09T13:25:57;20.50;99.90
47162;DHT22;32921;53.256;8.198;2022-09-09T13:28:26;20.40;99.90
47162;DHT22;32921;53.256;8.198;2022-09-09T13:30:57;20.50;99.90
47162;DHT22;32921;53.256;8.198;2022-09-09T13:33:37;20.40;99.90
47162;DHT22;32921;53.256;8.198;2022-09-09T13:38:33;20.20;99.90
47162;DHT22;32921;53.256;8.198;2022-09-09T13:41:06;20.00;99.90
47162;DHT22;32921;53.256;8.198;2022-09-09T13:43:38;19.90;99.90
47162;DHT22;32921;53.256;8.198;2022-09-09T13:46:40;19.80;99.90
47162;DHT22;32921;53.256;8.198;2022-09-09T13:52:29;19.60;99.90
47162;DHT22;32921;53.256;8.198;2022-09-09T13:54:56;19.60;99.90
47162;DHT22;32921;53.256;8.198;2022-09-09T13:57:25;19.60;99.90
47162;DHT22;32921;53.256;8.198;2022-09-09T13:59:52;19.80;99.90
47162;DHT22;32921;53.256;8.198;2022-09-09T14:02:18;19.60;99.90
47162;DHT22;32921;53.256;8.198;2022-09-09T14:04:44;19.60;99.90
47162;DHT22;32921;53.256;8.198;2022-09-09T14:07:15;19.80;99.90
47162;DHT22;32921;53.256;8.198;2022-09-09T14:09:41;19.90;99.90
47162;DHT22;32921;53.256;8.198;2022-09-09T14:12:12;20.10;99.90
47162;DHT22;32921;53.256;8.198;2022-09-09T14:14:38;20.00;99.90
47162;DHT22;32921;53.256;8.198;2022-09-09T14:17:04;20.10;99.90
47162;DHT22;32921;53.256;8.198;2022-09-09T14:19:30;20.10;99.90
47162;DHT22;32921;53.256;8.198;2022-09-09T14:21:57;20.00;99.90
47162;DHT22;32921;53.256;8.198;2022-09-09T14:24:22;19.90;99.90
47162;DHT22;32921;53.256;8.198;2022-09-09T14:26:48;19.90;99.90
47162;DHT22;32921;53.256;8.198;2022-09-09T14:29:14;19.70;99.90
47162;DHT22;32921;53.256;8.198;2022-09-09T14:31:39;20.10;99.90
47162;DHT22;32921;53.256;8.198;2022-09-09T14:34:05;20.80;99.90
47162;DHT22;32921;53.256;8.198;2022-09-09T14:36:31;21.80;99.90
47162;DHT22;32921;53.256;8.198;2022-09-09T14:38:57;22.50;99.90
47162;DHT22;32921;53.256;8.198;2022-09-09T14:41:23;21.40;99.90
47162;DHT22;32921;53.256;8.198;2022-09-09T14:43:50;20.90;99.90
47162;DHT22;32921;53.256;8.198;2022-09-09T14:46:18;20.60;99.90
47162;DHT22;32921;53.256;8.198;2022-09-09T14:48:44;20.40;99.90
47162;DHT22;32921;53.256;8.198;2022-09-09T14:51:16;20.30;99.90
47162;DHT22;32921;53.256;8.198;2022-09-09T14:53:43;20.00;99.90
47162;DHT22;32921;53.256;8.198;2022-09-09T14:56:14;20.10;99.90
47162;DHT22;32921;53.256;8.198;2022-09-09T14:58:41;20.20;99.90
47162;DHT22;32921;53.256;8.198;2022-09-09T15:01:08;20.70;99.90
47162;DHT22;32921;53.256;8.198;2022-09-09T15:03:38;21.40;99.90
47162;DHT22;32921;53.256;8.198;2022-09-09T15:06:11;21.60;99.90
47162;DHT22;32921;53.256;8.198;2022-09-09T15:08:38;21.40;99.90
47162;DHT22;32921;53.256;8.198;2022-09-09T15:11:05;21.40;99.90
47162;DHT22;32921;53.256;8.198;2022-09-09T15:13:33;21.10;99.90
47162;DHT22;32921;53.256;8.198;2022-09-09T15:16:11;20.50;99.90
47162;DHT22;32921;53.256;8.198;2022-09-09T15:18:37;20.30;99.90
47162;DHT22;32921;53.256;8.198;2022-09-09T15:21:12;20.10;99.90
47162;DHT22;32921;53.256;8.198;2022-09-09T15:23:38;20.20;99.90
47162;DHT22;32921;53.256;8.198;2022-09-09T15:26:04;20.50;99.90
47162;DHT22;32921;53.256;8.198;2022-09-09T15:28:35;21.10;99.90
47162;DHT22;32921;53.256;8.198;2022-09-09T15:31:07;20.90;99.90
47162;DHT22;32921;53.256;8.198;2022-09-09T15:33:34;20.70;99.90
47162;DHT22;32921;53.256;8.198;2022-09-09T15:36:22;20.00;99.90
47162;DHT22;32921;53.256;8.198;2022-09-09T15:38:48;19.50;99.90
47162;DHT22;32921;53.256;8.198;2022-09-09T15:41:15;19.30;99.90
47162;DHT22;32921;53.256;8.198;2022-09-09T15:43:48;19.30;99.90
47162;DHT22;32921;53.256;8.198;2022-09-09T15:48:46;19.30;99.90
47162;DHT22;32921;53.256;8.198;2022-09-09T15:51:12;19.10;99.90
47162;DHT22;32921;53.256;8.198;2022-09-09T15:53:38;18.90;99.90
47162;DHT22;32921;53.256;8.198;2022-09-09T15:56:08;18.80;99.90
47162;DHT22;32921;53.256;8.198;2022-09-09T15:58:34;18.60;99.90
47162;DHT22;32921;53.256;8.198;2022-09-09T16:01:04;18.60;99.90
47162;DHT22;32921;53.256;8.198;2022-09-09T16:03:39;18.60;99.90
47162;DHT22;32921;53.256;8.198;2022-09-09T16:06:06;18.60;99.90
47162;DHT22;32921;53.256;8.198;2022-09-09T16:08:38;18.60;99.90
47162;DHT22;32921;53.256;8.198;2022-09-09T16:11:08;18.70;99.90
47162;DHT22;32921;53.256;8.198;2022-09-09T16:13:38;19.30;99.90
47162;DHT22;32921;53.256;8.198;2022-09-09T16:16:07;20.30;99.90
47162;DHT22;32921;53.256;8.198;2022-09-09T16:19:16;20.00;99.90
47162;DHT22;32921;53.256;8.198;2022-09-09T16:21:31;19.80;99.90
47162;DHT22;32921;53.256;8.198;2022-09-09T16:23:59;19.40;99.90
47162;DHT22;32921;53.256;8.198;2022-09-09T16:26:26;19.00;99.90
47162;DHT22;32921;53.256;8.198;2022-09-09T16:28:52;19.00;99.90
47162;DHT22;32921;53.256;8.198;2022-09-09T16:31:21;18.80;99.90
47162;DHT22;32921;53.256;8.198;2022-09-09T16:33:47;18.70;99.90
47162;DHT22;32921;53.256;8.198;2022-09-09T16:36:16;18.70;99.90
47162;DHT22;32921;53.256;8.198;2022-09-09T16:38:43;18.50;99.90
47162;DHT22;32921;53.256;8.198;2022-09-09T16:41:09;18.50;99.90
47162;DHT22;32921;53.256;8.198;2022-09-09T16:43:36;18.40;99.90
47162;DHT22;32921;53.256;8.198;2022-09-09T16:46:18;18.20;99.90
47162;DHT22;32921;53.256;8.198;2022-09-09T16:48:45;18.20;99.90
47162;DHT22;32921;53.256;8.198;2022-09-09T16:53:42;18.20;99.90
47162;DHT22;32921;53.256;8.198;2022-09-09T16:56:10;18.30;99.90
47162;DHT22;32921;53.256;8.198;2022-09-09T16:58:36;18.30;99.90
47162;DHT22;32921;53.256;8.198;2022-09-09T17:01:03;18.40;99.90
47162;DHT22;32921;53.256;8.198;2022-09-09T17:03:30;18.40;99.90
47162;DHT22;32921;53.256;8.198;2022-09-09T17:05:57;18.30;99.90
47162;DHT22;32921;53.256;8.198;2022-09-09T17:08:23;18.30;99.90
47162;DHT22;32921;53.256;8.198;2022-09-09T17:10:49;18.20;99.90
47162;DHT22;32921;53.256;8.198;2022-09-09T17:13:15;18.20;99.90
47162;DHT22;32921;53.256;8.198;2022-09-09T17:15:45;18.00;99.90
47162;DHT22;32921;53.256;8.198;2022-09-09T17:18:11;18.00;99.90
47162;DHT22;32921;53.256;8.198;2022-09-09T17:20:38;18.00;99.90
47162;DHT22;32921;53.256;8.198;2022-09-09T17:23:05;18.00;99.90
47162;DHT22;32921;53.256;8.198;2022-09-09T17:25:31;18.00;99.90
47162;DHT22;32921;53.256;8.198;2022-09-09T17:27:57;17.80;99.90
47162;DHT22;32921;53.256;8.198;2022-09-09T17:30:23;17.80;99.90
47162;DHT22;32921;53.256;8.198;2022-09-09T17:32:49;17.60;99.90
47162;DHT22;32921;53.256;8.198;2022-09-09T17:35:14;17.40;99.90
47162;DHT22;32921;53.256;8.198;2022-09-09T17:37:40;17.30;99.90
47162;DHT22;32921;53.256;8.198;2022-09-09T17:40:07;17.20;99.90
47162;DHT22;32921;53.256;8.198;2022-09-09T17:42:33;17.20;99.90
47162;DHT22;32921;53.256;8.198;2022-09-09T17:44:59;17.10;99.90
47162;DHT22;32921;53.256;8.198;2022-09-09T17:47:25;17.00;99.90
47162;DHT22;32921;53.256;8.198;2022-09-09T17:49:51;17.00;99.90
47162;DHT22;32921;53.256;8.198;2022-09-09T17:52:16;16.90;99.90